Spencer, MA (01562)

3:11 PM EST on December 22, 2014 (GMT -0500)
KMASPENC6 | Change Station
CLOSE
Current Station
Personal Weather Station
Location: Spencer, MA
Elevation: 995 ft
Nearby Weather Stations

Elev 995 ft 42.23 °N, 71.98 °W | Updated 4 minutes ago

Overcast
Overcast
37.3 °F
Feels Like 37 °F
N
2.3
Wind Variable Wind from ENE
Gusts 2.5 mph

Today
High -- | Low -- °F
--% Chance of Precip.
Yesterday
High -- | Low -- °F
Precip. -- in
7:13 AM 4:19 PM
New Moon, 1% visible
Pressure 30.31 in
Visibility 10.0 miles
Clouds Overcast 1000 ft
Windchill 37 °F
Dew Point 28 °F
Humidity 70%
Rainfall 0.02 in
Snow Depth Not available.
UV 0 out of 12
Pollen .10 out of 12
Air Quality Not available.
Flu Activity Not available.
METAR KORH 221954Z 06006KT 10SM OVC010 02/M01 A3027 RMK AO2 SLP262 T00171006

More Conditions Fewer Conditions

Pressure 30.31 in
Visibility 10.0 miles
Clouds Overcast 1000 ft
Windchill 37 °F
Dew Point 28 °F
Humidity 70%
Rainfall 0.02 in
Snow Depth Not available.
UV 0 out of 12
Pollen .10 out of 12
Air Quality Not available.
Flu Activity Not available.
METAR KORH 221954Z 06006KT 10SM OVC010 02/M01 A3027 RMK AO2 SLP262 T00171006

More Conditions Fewer Conditions

10-Day Weather Forecast

Almanac

Astronomy

Dec. 22, 2014 Rise Set
Actual Time
Civil Twilight
Nautical Twilight
Astronomical Twilight
Moon
Length of Visible Light
Length of Day
Tomorrow will be .
, % of the Moon is Illuminated

Today's Extremes

State Highs State Lows

Community

WunderPhotos

Upload Photos

1,779,708 photos uploaded!

WunderBlogs® & News

Nearby

Air Quality

  Air Quality AQ Index Pollutant
Not available.

Snow Depth

Station Depth Elevation

Earthquake Activity

City Distance Mag. Time & Date
Minimum magnitude displayed is 2.5.

Coastal Water Temperatures

Place Temperature

Nearby Weather Stations